createdAt,value
2017-05-15T00:00:36.009Z,0
2017-05-15T00:01:16.587Z,0
2017-05-15T00:01:57.157Z,0
2017-05-15T00:02:37.727Z,0
2017-05-15T00:03:18.308Z,0
2017-05-15T00:03:58.876Z,0
2017-05-15T00:04:39.478Z,0
2017-05-15T00:05:20.075Z,0
2017-05-15T00:06:00.653Z,0
2017-05-15T00:06:41.228Z,0
2017-05-15T00:07:21.808Z,0
2017-05-15T00:08:02.388Z,0
2017-05-15T00:08:42.958Z,0
2017-05-15T00:09:23.620Z,0
2017-05-15T00:10:04.202Z,0
2017-05-15T00:10:44.786Z,0
2017-05-15T00:11:25.385Z,0
2017-05-15T00:12:05.975Z,0
2017-05-15T00:12:46.544Z,0
2017-05-15T00:13:27.163Z,0
2017-05-15T00:14:07.742Z,0
2017-05-15T00:14:48.378Z,0
2017-05-15T00:15:28.950Z,0
2017-05-15T00:16:09.541Z,0
2017-05-15T00:16:50.143Z,0
2017-05-15T00:17:30.709Z,0
2017-05-15T00:18:11.301Z,0
2017-05-15T00:18:51.899Z,0
2017-05-15T00:19:32.462Z,0
2017-05-15T00:20:13.055Z,0
2017-05-15T00:20:53.644Z,0
2017-05-15T00:21:34.250Z,0
2017-05-15T00:22:14.834Z,0
2017-05-15T00:22:55.408Z,0
2017-05-15T00:23:35.989Z,0
2017-05-15T00:24:16.558Z,0
2017-05-15T00:24:57.137Z,0
2017-05-15T00:25:37.727Z,0
2017-05-15T00:26:18.319Z,0
2017-05-15T00:26:58.886Z,0
2017-05-15T00:27:39.460Z,0
2017-05-15T00:28:20.033Z,0
2017-05-15T00:29:00.616Z,0
2017-05-15T00:29:41.199Z,0
2017-05-15T00:30:21.805Z,0
2017-05-15T00:31:02.365Z,0
2017-05-15T00:31:42.965Z,0
2017-05-15T00:32:23.531Z,0
2017-05-15T00:33:04.098Z,0
2017-05-15T00:33:44.680Z,0
2017-05-15T00:34:25.259Z,0
2017-05-15T00:35:05.843Z,0
2017-05-15T00:35:46.437Z,0
2017-05-15T00:36:27.019Z,0
2017-05-15T00:37:07.585Z,0
2017-05-15T00:37:48.153Z,0
2017-05-15T00:38:28.746Z,0
2017-05-15T00:39:09.319Z,0
2017-05-15T00:39:49.887Z,0
2017-05-15T00:40:30.459Z,0
2017-05-15T00:41:11.035Z,0
2017-05-15T00:41:51.605Z,0
2017-05-15T00:42:32.178Z,0
2017-05-15T00:43:12.750Z,0
2017-05-15T00:43:53.322Z,0
2017-05-15T00:44:33.896Z,0
2017-05-15T00:45:14.483Z,0
2017-05-15T00:45:55.060Z,0
2017-05-15T00:46:35.639Z,0
2017-05-15T00:47:16.243Z,0
2017-05-15T00:47:56.815Z,0
2017-05-15T00:48:37.380Z,0
2017-05-15T00:49:17.954Z,0
2017-05-15T00:49:58.525Z,0
2017-05-15T00:50:39.102Z,0
2017-05-15T00:51:19.739Z,0
2017-05-15T00:52:00.320Z,0
2017-05-15T00:52:40.887Z,0
2017-05-15T00:53:21.480Z,0
2017-05-15T00:54:02.060Z,0
2017-05-15T00:54:42.640Z,0
2017-05-15T00:55:23.220Z,0
2017-05-15T00:56:03.790Z,0
2017-05-15T00:56:44.381Z,0
2017-05-15T00:57:24.952Z,0
2017-05-15T00:58:05.526Z,0
2017-05-15T00:58:46.100Z,0
2017-05-15T00:59:26.674Z,0
2017-05-15T01:00:07.250Z,0
2017-05-15T01:00:47.843Z,0
2017-05-15T01:01:28.419Z,0
2017-05-15T01:02:08.994Z,0
2017-05-15T01:02:49.563Z,0
2017-05-15T01:03:30.156Z,0
2017-05-15T01:04:10.734Z,0
2017-05-15T01:04:51.338Z,0
2017-05-15T01:05:31.904Z,0
2017-05-15T01:06:12.474Z,0
2017-05-15T01:06:53.046Z,0
2017-05-15T01:07:33.623Z,0
2017-05-15T01:08:14.214Z,0
2017-05-15T01:08:54.791Z,0
2017-05-15T01:09:35.366Z,0
2017-05-15T01:10:15.932Z,0
2017-05-15T01:10:56.521Z,0
2017-05-15T01:11:37.138Z,0
2017-05-15T01:12:17.688Z,0
2017-05-15T01:12:58.280Z,0
2017-05-15T01:13:38.853Z,0
2017-05-15T01:14:19.423Z,0
2017-05-15T01:14:59.997Z,0
2017-05-15T01:15:40.577Z,0
2017-05-15T01:16:21.141Z,0
2017-05-15T01:17:01.722Z,0
2017-05-15T01:17:42.312Z,0
2017-05-15T01:18:22.887Z,0
2017-05-15T01:19:03.451Z,0
2017-05-15T01:19:44.031Z,0
2017-05-15T01:20:24.625Z,0
2017-05-15T01:21:05.181Z,0
2017-05-15T01:21:45.758Z,0
2017-05-15T01:22:26.338Z,0
2017-05-15T01:23:06.922Z,0
2017-05-15T01:23:47.485Z,0
2017-05-15T01:24:28.058Z,0
2017-05-15T01:25:08.667Z,0
2017-05-15T01:25:49.238Z,0
2017-05-15T01:26:29.805Z,0
2017-05-15T01:27:10.377Z,0
2017-05-15T01:27:50.987Z,0
2017-05-15T01:28:31.535Z,0
2017-05-15T01:29:12.106Z,0
2017-05-15T01:29:52.706Z,0
2017-05-15T01:30:33.289Z,0
2017-05-15T01:31:13.851Z,0
2017-05-15T01:31:54.435Z,0
2017-05-15T01:32:35.006Z,0
2017-05-15T01:33:15.623Z,0
2017-05-15T01:33:56.229Z,0
2017-05-15T01:34:36.828Z,0
2017-05-15T01:35:17.402Z,0
2017-05-15T01:35:58.000Z,0
2017-05-15T01:36:38.745Z,0
2017-05-15T01:37:19.323Z,0
2017-05-15T01:37:59.883Z,0
2017-05-15T01:38:40.499Z,0
2017-05-15T01:39:21.123Z,0
2017-05-15T01:40:01.660Z,0
2017-05-15T01:40:42.257Z,0
2017-05-15T01:41:22.840Z,0
2017-05-15T01:42:03.420Z,0
2017-05-15T01:42:44.019Z,0
2017-05-15T01:43:24.580Z,0
2017-05-15T01:44:05.151Z,0
2017-05-15T01:44:45.746Z,0
2017-05-15T01:45:26.356Z,0
2017-05-15T01:46:06.927Z,0
2017-05-15T01:46:47.505Z,0
2017-05-15T01:47:28.097Z,0
2017-05-15T01:48:08.663Z,0
2017-05-15T01:48:49.230Z,0
2017-05-15T01:49:29.821Z,0
2017-05-15T01:50:10.405Z,0
2017-05-15T01:50:50.980Z,0
2017-05-15T01:51:31.632Z,0
2017-05-15T01:52:12.221Z,0
2017-05-15T01:52:52.821Z,0
2017-05-15T01:53:33.406Z,0
2017-05-15T01:54:13.988Z,0
2017-05-15T01:54:54.578Z,0
2017-05-15T01:55:35.162Z,0
2017-05-15T01:56:15.736Z,0
2017-05-15T01:56:56.334Z,0
2017-05-15T01:57:36.904Z,0
2017-05-15T01:58:17.503Z,0
2017-05-15T01:58:58.084Z,0
2017-05-15T01:59:38.660Z,0
2017-05-15T02:00:19.240Z,0
2017-05-15T02:00:59.803Z,0
2017-05-15T02:01:40.390Z,0
2017-05-15T02:02:20.974Z,0
2017-05-15T02:03:01.555Z,0
2017-05-15T02:03:42.145Z,0
2017-05-15T02:04:22.769Z,0
2017-05-15T02:05:03.320Z,0
2017-05-15T02:05:43.904Z,0
2017-05-15T02:06:24.482Z,0
2017-05-15T02:07:05.055Z,0
2017-05-15T02:07:45.622Z,0
2017-05-15T02:08:26.201Z,0
2017-05-15T02:09:06.773Z,0
2017-05-15T02:09:47.346Z,0
2017-05-15T02:10:27.932Z,0
2017-05-15T02:11:08.522Z,0
2017-05-15T02:11:49.098Z,0
2017-05-15T02:12:29.670Z,0
2017-05-15T02:13:10.267Z,0
2017-05-15T02:13:50.846Z,0
2017-05-15T02:14:31.417Z,0
2017-05-15T02:15:11.997Z,0
2017-05-15T02:15:52.561Z,0
2017-05-15T02:16:33.130Z,0
2017-05-15T02:17:13.698Z,0
2017-05-15T02:17:54.275Z,0
2017-05-15T02:18:34.854Z,0
2017-05-15T02:19:15.435Z,0
2017-05-15T02:19:56.017Z,0
2017-05-15T02:20:36.594Z,0
2017-05-15T02:21:17.172Z,0
2017-05-15T02:21:57.755Z,0
2017-05-15T02:22:38.325Z,0
2017-05-15T02:23:18.900Z,0
2017-05-15T02:23:59.481Z,0
2017-05-15T02:24:40.050Z,0
2017-05-15T02:25:20.636Z,0
2017-05-15T02:26:01.221Z,0
2017-05-15T02:26:41.779Z,0
2017-05-15T02:27:22.354Z,0
2017-05-15T02:28:02.928Z,0
2017-05-15T02:28:43.512Z,0
2017-05-15T02:29:24.081Z,0
2017-05-15T02:30:04.652Z,0
2017-05-15T02:30:45.222Z,0
2017-05-15T02:31:25.819Z,0
2017-05-15T02:32:06.400Z,0
2017-05-15T02:32:46.969Z,0
2017-05-15T02:33:27.536Z,0
2017-05-15T02:34:08.117Z,0
2017-05-15T02:34:48.712Z,0
2017-05-15T02:35:29.290Z,0
2017-05-15T02:36:09.868Z,0
2017-05-15T02:36:50.437Z,0
2017-05-15T02:37:31.019Z,0
2017-05-15T02:38:11.595Z,0
2017-05-15T02:38:52.166Z,0
2017-05-15T02:39:32.728Z,0
2017-05-15T02:40:13.296Z,0
2017-05-15T02:40:53.878Z,0
2017-05-15T02:41:34.455Z,0
2017-05-15T02:42:15.031Z,0
2017-05-15T02:42:55.682Z,0
2017-05-15T02:43:36.252Z,0
2017-05-15T02:44:16.828Z,0
2017-05-15T02:44:57.421Z,0
2017-05-15T02:45:38.016Z,0
2017-05-15T02:46:18.582Z,0
2017-05-15T02:46:59.156Z,0
2017-05-15T02:47:39.768Z,0
2017-05-15T02:48:20.311Z,0
2017-05-15T02:49:00.910Z,0
2017-05-15T02:49:41.519Z,0
2017-05-15T02:50:22.107Z,0
2017-05-15T02:51:02.683Z,0
2017-05-15T02:51:43.273Z,0
2017-05-15T02:52:23.848Z,0
2017-05-15T02:53:04.425Z,0
2017-05-15T02:53:45.032Z,0
2017-05-15T02:54:25.599Z,0
2017-05-15T02:55:06.169Z,0
2017-05-15T02:55:46.745Z,0
2017-05-15T02:56:27.319Z,0
2017-05-15T02:57:07.927Z,0
2017-05-15T02:57:48.514Z,0
2017-05-15T02:58:29.090Z,0
2017-05-15T02:59:09.664Z,0
2017-05-15T02:59:50.231Z,0
2017-05-15T03:00:30.843Z,0
2017-05-15T03:01:11.441Z,0
2017-05-15T03:01:52.015Z,0
2017-05-15T03:02:32.593Z,0
2017-05-15T03:03:13.173Z,0
2017-05-15T03:03:53.749Z,0
2017-05-15T03:04:34.334Z,0
2017-05-15T03:05:14.928Z,0
2017-05-15T03:05:55.503Z,0
2017-05-15T03:06:36.118Z,0
2017-05-15T03:07:16.706Z,0
2017-05-15T03:07:57.307Z,0
2017-05-15T03:08:37.917Z,0
2017-05-15T03:09:18.891Z,0
2017-05-15T03:09:59.471Z,0
2017-05-15T03:10:40.061Z,0
2017-05-15T03:11:20.639Z,0
2017-05-15T03:12:01.219Z,0
2017-05-15T03:12:41.799Z,0
2017-05-15T03:13:22.375Z,0
2017-05-15T03:14:02.942Z,0
2017-05-15T03:14:43.530Z,0
2017-05-15T03:15:24.123Z,4
2017-05-15T03:16:04.709Z,4
2017-05-15T03:16:45.294Z,4
2017-05-15T03:17:25.867Z,0
2017-05-15T03:18:06.438Z,4
2017-05-15T03:18:47.051Z,4
2017-05-15T03:19:27.624Z,8
2017-05-15T03:20:08.193Z,4
2017-05-15T03:20:48.770Z,4
2017-05-15T03:21:29.340Z,8
2017-05-15T03:22:09.906Z,4
2017-05-15T03:22:50.499Z,8
2017-05-15T03:23:31.128Z,8
2017-05-15T03:24:11.715Z,8
2017-05-15T03:24:52.309Z,12
2017-05-15T03:25:32.902Z,12
2017-05-15T03:26:13.473Z,12
2017-05-15T03:26:54.049Z,12
2017-05-15T03:27:34.629Z,16
2017-05-15T03:28:15.229Z,16
2017-05-15T03:28:55.809Z,16
2017-05-15T03:29:36.376Z,20
2017-05-15T03:30:16.962Z,24
2017-05-15T03:30:57.557Z,24
2017-05-15T03:31:38.136Z,24
2017-05-15T03:32:18.761Z,24
2017-05-15T03:32:59.385Z,28
2017-05-15T03:33:39.964Z,32
2017-05-15T03:34:20.569Z,36
2017-05-15T03:35:01.116Z,36
2017-05-15T03:35:41.795Z,40
2017-05-15T03:36:22.373Z,44
2017-05-15T03:37:02.949Z,44
2017-05-15T03:37:43.540Z,48
2017-05-15T03:38:24.126Z,52
2017-05-15T03:39:04.713Z,56
2017-05-15T03:39:45.290Z,56
2017-05-15T03:40:25.862Z,60
2017-05-15T03:41:06.435Z,68
2017-05-15T03:41:47.002Z,68
2017-05-15T03:42:27.594Z,76
2017-05-15T03:43:08.190Z,76
2017-05-15T03:43:48.796Z,80
2017-05-15T03:44:29.381Z,88
2017-05-15T03:45:09.983Z,92
2017-05-15T03:45:50.559Z,96
2017-05-15T03:46:31.177Z,100
2017-05-15T03:47:11.762Z,108
2017-05-15T03:47:52.375Z,112
2017-05-15T03:48:32.964Z,116
2017-05-15T03:49:13.544Z,124
2017-05-15T03:49:54.116Z,132
2017-05-15T03:50:34.685Z,136
2017-05-15T03:51:15.272Z,144
2017-05-15T03:51:55.852Z,152
2017-05-15T03:52:36.439Z,156
2017-05-15T03:53:17.037Z,164
2017-05-15T03:53:57.644Z,172
2017-05-15T03:54:38.231Z,180
2017-05-15T03:55:18.850Z,188
2017-05-15T03:55:59.438Z,200
2017-05-15T03:56:40.013Z,208
2017-05-15T03:57:20.593Z,216
2017-05-15T03:58:01.190Z,224
2017-05-15T03:58:41.785Z,232
2017-05-15T03:59:22.352Z,244
2017-05-15T04:00:02.930Z,252
2017-05-15T04:00:43.553Z,264
2017-05-15T04:01:24.161Z,272
2017-05-15T04:02:04.760Z,284
2017-05-15T04:02:45.342Z,292
2017-05-15T04:03:25.926Z,304
2017-05-15T04:04:06.520Z,312
2017-05-15T04:04:47.130Z,324
2017-05-15T04:05:27.733Z,336
2017-05-15T04:06:08.309Z,340
2017-05-15T04:06:48.890Z,352
2017-05-15T04:07:29.488Z,360
2017-05-15T04:08:10.069Z,368
2017-05-15T04:08:50.664Z,376
2017-05-15T04:09:31.272Z,384
2017-05-15T04:10:11.843Z,392
2017-05-15T04:10:52.471Z,400
2017-05-15T04:11:33.027Z,408
2017-05-15T04:12:13.605Z,420
2017-05-15T04:12:54.191Z,428
2017-05-15T04:13:34.769Z,440
2017-05-15T04:14:15.361Z,448
2017-05-15T04:14:55.940Z,460
2017-05-15T04:15:36.520Z,468
2017-05-15T04:16:17.087Z,480
2017-05-15T04:16:57.667Z,488
2017-05-15T04:17:38.248Z,500
2017-05-15T04:18:18.841Z,508
2017-05-15T04:18:59.421Z,516
2017-05-15T04:19:39.992Z,528
2017-05-15T04:20:20.559Z,536
2017-05-15T04:21:01.151Z,544
2017-05-15T04:21:41.766Z,552
2017-05-15T04:22:22.349Z,560
2017-05-15T04:23:02.926Z,576
2017-05-15T04:23:43.500Z,584
2017-05-15T04:24:24.070Z,592
2017-05-15T04:25:04.660Z,604
2017-05-15T04:25:45.275Z,616
2017-05-15T04:26:25.884Z,628
2017-05-15T04:27:06.472Z,640
2017-05-15T04:27:47.050Z,648
2017-05-15T04:28:27.639Z,656
2017-05-15T04:29:08.211Z,668
2017-05-15T04:29:48.784Z,680
2017-05-15T04:30:29.364Z,692
2017-05-15T04:31:09.937Z,700
2017-05-15T04:31:50.520Z,712
2017-05-15T04:32:31.247Z,724
2017-05-15T04:33:11.826Z,736
2017-05-15T04:33:52.391Z,748
2017-05-15T04:34:32.984Z,756
2017-05-15T04:35:13.559Z,772
2017-05-15T04:35:54.153Z,784
2017-05-15T04:36:34.727Z,796
2017-05-15T04:37:15.338Z,816
2017-05-15T04:37:55.911Z,832
2017-05-15T04:38:36.493Z,852
2017-05-15T04:39:17.070Z,872
2017-05-15T04:39:57.674Z,892
2017-05-15T04:40:38.237Z,904
2017-05-15T04:41:18.828Z,908
2017-05-15T04:41:59.423Z,908
2017-05-15T04:42:40.036Z,908
2017-05-15T04:43:20.646Z,912
2017-05-15T04:44:01.237Z,924
2017-05-15T04:44:41.817Z,936
2017-05-15T04:45:22.382Z,948
2017-05-15T04:46:06.245Z,968
2017-05-15T04:46:46.833Z,992
2017-05-15T04:47:27.411Z,1020
2017-05-15T04:48:08.005Z,1056
2017-05-15T04:48:48.610Z,1080
2017-05-15T04:49:29.187Z,1112
2017-05-15T04:50:09.754Z,1144
2017-05-15T04:50:50.333Z,1168
2017-05-15T04:51:30.963Z,1180
2017-05-15T04:52:11.570Z,1184
2017-05-15T04:52:52.160Z,1180
2017-05-15T04:53:32.778Z,1180
2017-05-15T04:54:13.369Z,1180
2017-05-15T04:54:53.944Z,1180
2017-05-15T04:55:34.527Z,1180
2017-05-15T04:56:15.114Z,1188
2017-05-15T04:56:55.739Z,1200
2017-05-15T04:57:36.326Z,1220
2017-05-15T04:58:16.903Z,1252
2017-05-15T04:58:57.490Z,1288
2017-05-15T04:59:38.074Z,1332
2017-05-15T05:00:18.679Z,1388
2017-05-15T05:00:59.247Z,1444
2017-05-15T05:01:39.837Z,1508
2017-05-15T05:02:20.444Z,1560
2017-05-15T05:03:01.042Z,1620
2017-05-15T05:03:41.665Z,1684
2017-05-15T05:04:22.348Z,1752
2017-05-15T05:05:02.956Z,1832
2017-05-15T05:05:43.532Z,1904
2017-05-15T05:06:24.143Z,1928
2017-05-15T05:07:04.716Z,1940
2017-05-15T05:07:45.292Z,1964
2017-05-15T05:08:25.856Z,2004
2017-05-15T05:09:06.426Z,2044
2017-05-15T05:09:46.998Z,2072
2017-05-15T05:10:27.567Z,2088
2017-05-15T05:11:08.155Z,2136
2017-05-15T05:11:48.742Z,2192
2017-05-15T05:12:29.327Z,2260
2017-05-15T05:13:09.925Z,2268
2017-05-15T05:13:50.533Z,2248
2017-05-15T05:14:31.126Z,2212
2017-05-15T05:15:11.699Z,2188
2017-05-15T05:15:52.282Z,2168
2017-05-15T05:16:32.878Z,2176
2017-05-15T05:17:13.465Z,2204
2017-05-15T05:17:54.045Z,2236
2017-05-15T05:18:34.625Z,2300
2017-05-15T05:19:15.269Z,2372
2017-05-15T05:19:55.832Z,2444
2017-05-15T05:20:36.452Z,2488
2017-05-15T05:21:17.107Z,2520
2017-05-15T05:21:57.735Z,2548
2017-05-15T05:22:38.349Z,2524
2017-05-15T05:23:19.130Z,2520
2017-05-15T05:23:59.884Z,2532
2017-05-15T05:24:40.589Z,2556
2017-05-15T05:25:21.166Z,2604
2017-05-15T05:26:01.736Z,2624
2017-05-15T05:26:42.311Z,2616
2017-05-15T05:27:22.897Z,2560
2017-05-15T05:28:03.473Z,2516
2017-05-15T05:28:44.065Z,2464
2017-05-15T05:29:24.664Z,2408
2017-05-15T05:30:05.246Z,2364
2017-05-15T05:30:45.824Z,2368
2017-05-15T05:31:26.447Z,2384
2017-05-15T05:32:06.985Z,2416
2017-05-15T05:32:47.587Z,2476
2017-05-15T05:33:28.184Z,2524
2017-05-15T05:34:08.762Z,2564
2017-05-15T05:34:49.346Z,2580
2017-05-15T05:35:29.934Z,2552
2017-05-15T05:36:10.533Z,2508
2017-05-15T05:36:51.108Z,2488
2017-05-15T05:37:31.693Z,2448
2017-05-15T05:38:12.265Z,2400
2017-05-15T05:38:52.856Z,2344
2017-05-15T05:39:33.444Z,2252
2017-05-15T05:40:14.019Z,2112
2017-05-15T05:40:54.606Z,2088
2017-05-15T05:41:35.196Z,2072
2017-05-15T05:42:15.782Z,2044
2017-05-15T05:42:56.369Z,2068
2017-05-15T05:43:36.945Z,2120
2017-05-15T05:44:17.529Z,2148
2017-05-15T05:44:58.110Z,2112
2017-05-15T05:45:38.676Z,2056
2017-05-15T05:46:19.285Z,2040
2017-05-15T05:46:59.855Z,2000
2017-05-15T05:47:40.433Z,1976
2017-05-15T05:48:21.013Z,1996
2017-05-15T05:49:01.588Z,1996
2017-05-15T05:49:42.182Z,2016
2017-05-15T05:50:22.768Z,2044
2017-05-15T05:51:03.349Z,2080
2017-05-15T05:51:43.936Z,2084
2017-05-15T05:52:24.523Z,2096
2017-05-15T05:53:05.107Z,2104
2017-05-15T05:53:45.765Z,2148
2017-05-15T05:54:26.655Z,2188
2017-05-15T05:55:07.238Z,2220
2017-05-15T05:55:47.816Z,2264
2017-05-15T05:56:28.436Z,2332
2017-05-15T05:57:09.043Z,2444
2017-05-15T05:57:49.614Z,2588
2017-05-15T05:58:30.199Z,2792
2017-05-15T05:59:10.779Z,3024
2017-05-15T05:59:51.363Z,3236
2017-05-15T06:00:31.973Z,3400
2017-05-15T06:01:12.538Z,3548
2017-05-15T06:01:53.118Z,3684
2017-05-15T06:02:33.714Z,3752
2017-05-15T06:03:14.289Z,3792
2017-05-15T06:03:54.869Z,3836
2017-05-15T06:04:35.433Z,3888
2017-05-15T06:05:16.041Z,3924
2017-05-15T06:05:56.622Z,3932
2017-05-15T06:06:37.188Z,3916
2017-05-15T06:07:17.759Z,3916
2017-05-15T06:07:58.378Z,3928
2017-05-15T06:08:38.928Z,3948
2017-05-15T06:09:19.494Z,4008
2017-05-15T06:10:00.068Z,4080
2017-05-15T06:10:40.638Z,4176
2017-05-15T06:11:21.211Z,4272
2017-05-15T06:12:01.782Z,4380
2017-05-15T06:12:42.352Z,4384
2017-05-15T06:13:22.932Z,4284
2017-05-15T06:14:03.506Z,4268
2017-05-15T06:14:44.097Z,4312
2017-05-15T06:15:24.677Z,4336
2017-05-15T06:16:05.250Z,4384
2017-05-15T06:16:45.858Z,4464
2017-05-15T06:17:26.436Z,4472
2017-05-15T06:18:07.014Z,4620
2017-05-15T06:18:47.598Z,4824
2017-05-15T06:19:28.168Z,5008
2017-05-15T06:20:08.741Z,5232
2017-05-15T06:20:49.314Z,5420
2017-05-15T06:21:29.896Z,5572
2017-05-15T06:22:10.479Z,5560
2017-05-15T06:22:51.048Z,5476
2017-05-15T06:23:31.624Z,5340
2017-05-15T06:24:12.205Z,5132
2017-05-15T06:24:52.777Z,4908
2017-05-15T06:25:33.351Z,4560
2017-05-15T06:26:13.926Z,4464
2017-05-15T06:26:56.327Z,4284
2017-05-15T06:27:36.890Z,4168
2017-05-15T06:28:17.470Z,4024
2017-05-15T06:28:58.106Z,3912
2017-05-15T06:29:38.682Z,3780
2017-05-15T06:30:19.255Z,3580
2017-05-15T06:30:59.825Z,3392
2017-05-15T06:31:40.392Z,3280
2017-05-15T06:32:20.979Z,3200
2017-05-15T06:33:01.568Z,3228
2017-05-15T06:33:42.142Z,3080
2017-05-15T06:34:22.727Z,3592
2017-05-15T06:35:03.395Z,3604
2017-05-15T06:35:43.991Z,3612
2017-05-15T06:36:24.581Z,3516
2017-05-15T06:37:05.159Z,3500
2017-05-15T06:37:45.738Z,3636
2017-05-15T06:38:26.320Z,3632
2017-05-15T06:39:06.901Z,3640
2017-05-15T06:39:47.489Z,3652
2017-05-15T06:40:28.065Z,3668
2017-05-15T06:41:09.545Z,3700
2017-05-15T06:41:50.126Z,3720
2017-05-15T06:42:30.726Z,3748
2017-05-15T06:43:11.319Z,3780
2017-05-15T06:43:51.891Z,3804
2017-05-15T06:44:32.460Z,3832
2017-05-15T06:45:13.034Z,3848
2017-05-15T06:45:53.621Z,3872
2017-05-15T06:46:34.193Z,3896
2017-05-15T06:47:14.785Z,3908
2017-05-15T06:47:55.363Z,3936
2017-05-15T06:48:35.934Z,3964
2017-05-15T06:49:16.501Z,3992
2017-05-15T06:49:57.095Z,4012
2017-05-15T06:50:37.667Z,4032
2017-05-15T06:51:18.256Z,4056
2017-05-15T06:51:58.817Z,4088
2017-05-15T06:52:39.405Z,4120
2017-05-15T06:53:19.976Z,4148
2017-05-15T06:54:00.556Z,4168
2017-05-15T06:54:41.145Z,4192
2017-05-15T06:55:21.724Z,4208
2017-05-15T06:56:02.324Z,4244
2017-05-15T06:56:42.909Z,4264
2017-05-15T06:57:23.511Z,4284
2017-05-15T06:58:04.115Z,4324
2017-05-15T06:58:44.688Z,4352
2017-05-15T06:59:25.270Z,4384
2017-05-15T07:00:05.859Z,4416
2017-05-15T07:00:46.445Z,4436
2017-05-15T07:01:27.027Z,4460
2017-05-15T07:02:07.613Z,4480
2017-05-15T07:02:48.209Z,4500
2017-05-15T07:03:28.786Z,4524
2017-05-15T07:04:09.359Z,4548
2017-05-15T07:04:49.935Z,4584
2017-05-15T07:05:30.506Z,4608
2017-05-15T07:06:11.107Z,4632
2017-05-15T07:06:51.685Z,4652
2017-05-15T07:07:32.289Z,4664
2017-05-15T07:08:12.872Z,4688
2017-05-15T07:08:53.446Z,4704
2017-05-15T07:09:34.053Z,4728
2017-05-15T07:10:14.631Z,4752
2017-05-15T07:10:55.223Z,4776
2017-05-15T07:11:35.792Z,4796
2017-05-15T07:12:16.354Z,4804
2017-05-15T07:12:56.934Z,4844
2017-05-15T07:13:37.501Z,4888
2017-05-15T07:14:18.077Z,4920
2017-05-15T07:14:58.657Z,4944
2017-05-15T07:15:39.283Z,4964
2017-05-15T07:16:19.823Z,4992
2017-05-15T07:17:00.404Z,5024
2017-05-15T07:17:41.007Z,4864
2017-05-15T07:18:21.579Z,5064
2017-05-15T07:19:02.186Z,5068
2017-05-15T07:19:42.796Z,5084
2017-05-15T07:20:23.390Z,5096
2017-05-15T07:21:03.942Z,5116
2017-05-15T07:21:44.529Z,5156
2017-05-15T07:22:25.112Z,5188
2017-05-15T07:23:05.687Z,5188
2017-05-15T07:23:46.272Z,5184
2017-05-15T07:24:26.851Z,5192
2017-05-15T07:25:07.448Z,5208
2017-05-15T07:25:48.019Z,5240
2017-05-15T07:26:28.615Z,5280
2017-05-15T07:27:09.223Z,5320
2017-05-15T07:27:49.802Z,5348
2017-05-15T07:28:30.379Z,5388
2017-05-15T07:29:10.950Z,5440
2017-05-15T07:29:51.530Z,5508
2017-05-15T07:30:32.108Z,5600
2017-05-15T07:31:12.703Z,5680
2017-05-15T07:31:53.287Z,5772
2017-05-15T07:32:33.871Z,5932
2017-05-15T07:33:14.452Z,6188
2017-05-15T07:33:55.059Z,6816
2017-05-15T07:34:35.618Z,12460
2017-05-15T07:35:16.195Z,22624
2017-05-15T07:35:56.767Z,32576
2017-05-15T07:36:37.353Z,40512
2017-05-15T07:37:17.929Z,42336
2017-05-15T07:37:58.544Z,42752
2017-05-15T07:38:39.124Z,42464
2017-05-15T07:39:19.737Z,43296
2017-05-15T07:40:00.321Z,44256
2017-05-15T07:40:40.909Z,45664
2017-05-15T07:41:21.518Z,46080
2017-05-15T07:42:02.092Z,47008
2017-05-15T07:42:42.682Z,46944
2017-05-15T07:43:23.254Z,46944
2017-05-15T07:44:03.826Z,46208
2017-05-15T07:44:44.422Z,46304
2017-05-15T07:45:25.004Z,43488
2017-05-15T07:46:05.628Z,45120
2017-05-15T07:46:46.198Z,31168
2017-05-15T07:47:26.783Z,15316
2017-05-15T07:48:07.352Z,7384
2017-05-15T07:48:47.933Z,6728
2017-05-15T07:49:28.530Z,6488
2017-05-15T07:50:09.101Z,6272
2017-05-15T07:50:49.699Z,6216
2017-05-15T07:51:30.284Z,6096
2017-05-15T07:52:10.929Z,6016
2017-05-15T07:52:51.476Z,5964
2017-05-15T07:53:32.048Z,5980
2017-05-15T07:54:12.621Z,6000
2017-05-15T07:54:53.213Z,6008
2017-05-15T07:55:33.804Z,6012
2017-05-15T07:56:14.403Z,6048
2017-05-15T07:56:54.980Z,6104
2017-05-15T07:57:35.557Z,6156
2017-05-15T07:58:16.134Z,6180
2017-05-15T07:58:56.730Z,6236
2017-05-15T07:59:37.328Z,6260
2017-05-15T08:00:17.924Z,6368
2017-05-15T08:00:58.508Z,6428
2017-05-15T08:01:39.088Z,6548
2017-05-15T08:02:19.678Z,6728
2017-05-15T08:03:00.266Z,7124
2017-05-15T08:03:40.843Z,8712
2017-05-15T08:04:21.415Z,22688
2017-05-15T08:05:01.990Z,37504
2017-05-15T08:05:42.563Z,52800
2017-05-15T08:06:23.154Z,55968
2017-05-15T08:07:03.734Z,54880
2017-05-15T08:07:44.318Z,53952
2017-05-15T08:08:24.896Z,53632
2017-05-15T08:09:05.492Z,55712
2017-05-15T08:09:46.083Z,56800
2017-05-15T08:10:26.653Z,58304
2017-05-15T08:11:07.245Z,59008
2017-05-15T08:11:47.826Z,58784
2017-05-15T08:12:28.452Z,59072
2017-05-15T08:13:09.061Z,59072
2017-05-15T08:13:49.642Z,59424
2017-05-15T08:14:30.258Z,60480
2017-05-15T08:15:10.850Z,59520
2017-05-15T08:15:51.420Z,59072
2017-05-15T08:16:32.079Z,59264
2017-05-15T08:17:12.659Z,55296
2017-05-15T08:17:53.239Z,59936
2017-05-15T08:18:33.824Z,56896
2017-05-15T08:19:14.416Z,55072
2017-05-15T08:19:55.028Z,48736
2017-05-15T08:20:35.681Z,54912
2017-05-15T08:21:16.275Z,58720
2017-05-15T08:21:56.865Z,56832
2017-05-15T08:22:37.484Z,54784
2017-05-15T08:23:18.109Z,60928
2017-05-15T08:23:58.684Z,63008
2017-05-15T08:24:39.297Z,61920
2017-05-15T08:25:19.887Z,60960
2017-05-15T08:26:00.501Z,62240
2017-05-15T08:26:41.082Z,63040
2017-05-15T08:27:21.671Z,60224
2017-05-15T08:28:02.273Z,54592
2017-05-15T08:28:42.829Z,58112
2017-05-15T08:29:23.406Z,60928
2017-05-15T08:30:04.009Z,59680
2017-05-15T08:30:44.685Z,55712
2017-05-15T08:31:25.316Z,57856
2017-05-15T08:32:05.904Z,60160
2017-05-15T08:32:46.482Z,56704
2017-05-15T08:33:27.062Z,45952
2017-05-15T08:34:07.722Z,37760
2017-05-15T08:34:48.353Z,57120
2017-05-15T08:35:28.943Z,49824
2017-05-15T08:36:09.518Z,55008
2017-05-15T08:36:50.174Z,58976
2017-05-15T08:37:30.784Z,62432
2017-05-15T08:38:11.366Z,61984
2017-05-15T08:38:51.950Z,63808
2017-05-15T08:39:32.543Z,63520
2017-05-15T08:40:13.120Z,64416
2017-05-15T08:40:53.699Z,64928
2017-05-15T08:41:34.301Z,59744
2017-05-15T08:42:14.874Z,61824
2017-05-15T08:42:55.455Z,58336
2017-05-15T08:43:36.045Z,60928
2017-05-15T08:44:16.650Z,58848
2017-05-15T08:44:57.233Z,66016
2017-05-15T08:45:37.809Z,57536
2017-05-15T08:46:18.388Z,61280
2017-05-15T08:46:58.966Z,66176
2017-05-15T08:47:39.546Z,62016
2017-05-15T08:48:20.155Z,55136
2017-05-15T08:49:00.703Z,52704
2017-05-15T08:49:41.271Z,51360
2017-05-15T08:50:21.846Z,60352
2017-05-15T08:51:02.438Z,61248
2017-05-15T08:51:43.020Z,63840
2017-05-15T08:52:23.621Z,66272
2017-05-15T08:53:04.198Z,69408
2017-05-15T08:53:44.774Z,69984
2017-05-15T08:54:25.363Z,68288
2017-05-15T08:55:05.966Z,72064
2017-05-15T08:55:46.548Z,73600
2017-05-15T08:56:27.189Z,70240
2017-05-15T08:57:07.780Z,72128
2017-05-15T08:57:48.373Z,74208
2017-05-15T08:58:28.953Z,74816
2017-05-15T08:59:09.534Z,72640
2017-05-15T08:59:50.119Z,72640
2017-05-15T09:00:30.703Z,72928
2017-05-15T09:01:11.290Z,75424
2017-05-15T09:01:51.882Z,75872
2017-05-15T09:02:32.462Z,73696
2017-05-15T09:03:13.042Z,74176
2017-05-15T09:03:53.659Z,75008
2017-05-15T09:04:34.240Z,76640
2017-05-15T09:05:14.820Z,72960
2017-05-15T09:05:55.409Z,66048
2017-05-15T09:06:36.017Z,65248
2017-05-15T09:07:16.594Z,70528
2017-05-15T09:07:57.196Z,72064
2017-05-15T09:08:37.782Z,68896
2017-05-15T09:09:18.358Z,70400
2017-05-15T09:09:58.971Z,71008
2017-05-15T09:10:39.545Z,69664
2017-05-15T09:11:20.138Z,73952
2017-05-15T09:12:00.738Z,72448
2017-05-15T09:12:41.331Z,59424
2017-05-15T09:13:21.915Z,39616
2017-05-15T09:14:02.513Z,20864
2017-05-15T09:14:43.108Z,11336
2017-05-15T09:15:23.687Z,10292
2017-05-15T09:16:04.274Z,9976
2017-05-15T09:16:44.854Z,9796
2017-05-15T09:17:25.423Z,9852
2017-05-15T09:18:06.007Z,9920
2017-05-15T09:18:46.580Z,10048
2017-05-15T09:19:27.154Z,10252
2017-05-15T09:20:07.747Z,10552
2017-05-15T09:20:48.336Z,15476
2017-05-15T09:21:28.931Z,35136